createdAt,value
2018-12-23T00:00:30.535Z,7.27
2018-12-23T00:02:59.727Z,7.29
2018-12-23T00:05:28.544Z,7.34
2018-12-23T00:07:57.393Z,7.35
2018-12-23T00:10:26.247Z,7.44
2018-12-23T00:12:55.123Z,7.43
2018-12-23T00:15:23.943Z,7.42
2018-12-23T00:17:52.775Z,7.45
2018-12-23T00:20:21.602Z,7.45
2018-12-23T00:22:50.425Z,7.49
2018-12-23T00:25:19.263Z,7.47
2018-12-23T00:27:48.099Z,7.46
2018-12-23T00:30:16.945Z,7.43
2018-12-23T00:32:45.795Z,7.48
2018-12-23T00:35:20.316Z,7.47
2018-12-23T00:37:45.486Z,7.47
2018-12-23T00:40:14.354Z,7.39
2018-12-23T00:42:43.242Z,7.37
2018-12-23T00:45:12.138Z,7.42
2018-12-23T00:47:40.973Z,7.40
2018-12-23T00:50:09.894Z,7.41
2018-12-23T00:52:38.755Z,7.36
2018-12-23T00:55:07.680Z,7.36
2018-12-23T00:57:36.501Z,7.38
2018-12-23T01:00:06.496Z,7.34
2018-12-23T01:02:35.489Z,7.33
2018-12-23T01:05:05.332Z,7.37
2018-12-23T01:07:34.555Z,7.38
2018-12-23T01:10:03.555Z,7.44
2018-12-23T01:12:32.537Z,7.44
2018-12-23T01:15:01.387Z,7.39
2018-12-23T01:17:30.343Z,7.43
2018-12-23T01:19:59.188Z,7.38
2018-12-23T01:22:28.047Z,7.32
2018-12-23T01:24:56.940Z,7.28
2018-12-23T01:27:26.827Z,7.20
2018-12-23T01:29:55.743Z,7.21
2018-12-23T01:32:24.617Z,7.04
2018-12-23T01:34:53.438Z,6.97
2018-12-23T01:37:22.326Z,6.97
2018-12-23T01:39:51.291Z,7.07
2018-12-23T01:42:20.152Z,7.08
2018-12-23T01:44:48.993Z,6.99
2018-12-23T01:47:17.910Z,7.03
2018-12-23T01:49:46.742Z,7.00
2018-12-23T01:52:15.694Z,6.92
2018-12-23T01:54:44.566Z,6.92
2018-12-23T01:57:14.252Z,6.98
2018-12-23T01:59:43.090Z,7.01
2018-12-23T02:02:12.042Z,7.01
2018-12-23T02:04:40.958Z,6.93
2018-12-23T02:07:09.919Z,6.94
2018-12-23T02:09:38.765Z,6.93
2018-12-23T02:12:07.620Z,6.89
2018-12-23T02:14:36.651Z,6.89
2018-12-23T02:17:05.719Z,6.91
2018-12-23T02:19:34.725Z,6.82
2018-12-23T02:22:03.551Z,6.83
2018-12-23T02:24:32.363Z,6.85
2018-12-23T02:27:01.340Z,6.77
2018-12-23T02:29:30.283Z,6.74
2018-12-23T02:31:59.156Z,6.74
2018-12-23T02:34:28.014Z,6.75
2018-12-23T02:36:56.851Z,6.74
2018-12-23T02:39:25.694Z,6.78
2018-12-23T02:41:54.592Z,6.75
2018-12-23T02:44:24.283Z,6.68
2018-12-23T02:46:53.082Z,6.60
2018-12-23T02:49:21.926Z,6.60
2018-12-23T02:51:50.869Z,6.57
2018-12-23T02:54:20.786Z,6.54
2018-12-23T02:56:49.662Z,6.55
2018-12-23T02:59:18.492Z,6.52
2018-12-23T03:01:47.348Z,6.46
2018-12-23T03:04:16.239Z,6.44
2018-12-23T03:06:45.149Z,6.46
2018-12-23T03:09:14.179Z,6.38
2018-12-23T03:11:43.132Z,6.33
2018-12-23T03:14:12.068Z,6.20
2018-12-23T03:16:40.890Z,6.23
2018-12-23T03:19:10.804Z,6.20
2018-12-23T03:21:39.778Z,6.21
2018-12-23T03:24:08.582Z,6.23
2018-12-23T03:26:37.472Z,6.21
2018-12-23T03:29:06.407Z,6.21
2018-12-23T03:31:35.304Z,6.33
2018-12-23T03:34:04.223Z,6.43
2018-12-23T03:36:33.064Z,6.47
2018-12-23T03:39:02.340Z,6.51
2018-12-23T03:41:31.379Z,6.54
2018-12-23T03:44:00.358Z,6.62
2018-12-23T03:46:29.208Z,6.58
2018-12-23T03:48:58.565Z,6.53
2018-12-23T03:51:27.400Z,6.62
2018-12-23T03:53:56.255Z,6.64
2018-12-23T03:56:25.180Z,6.77
2018-12-23T03:58:54.011Z,6.76
2018-12-23T04:01:22.843Z,6.79
2018-12-23T04:03:51.747Z,6.80
2018-12-23T04:06:24.690Z,6.74
2018-12-23T04:08:51.528Z,6.67
2018-12-23T04:11:20.430Z,6.61
2018-12-23T04:13:49.280Z,6.59
2018-12-23T04:16:18.239Z,6.51
2018-12-23T04:18:47.409Z,6.61
2018-12-23T04:21:16.323Z,6.65
2018-12-23T04:23:45.669Z,6.65
2018-12-23T04:26:14.546Z,6.64
2018-12-23T04:28:43.374Z,6.63
2018-12-23T04:31:12.312Z,6.49
2018-12-23T04:33:42.774Z,6.57
2018-12-23T04:36:11.648Z,6.55
2018-12-23T04:38:41.404Z,6.56
2018-12-23T04:41:10.289Z,6.61
2018-12-23T04:43:39.220Z,6.62
2018-12-23T04:46:08.392Z,6.66
2018-12-23T04:48:38.398Z,6.67
2018-12-23T04:51:07.184Z,6.69
2018-12-23T04:53:36.046Z,6.70
2018-12-23T04:56:05.271Z,6.69
2018-12-23T04:58:34.168Z,6.79
2018-12-23T05:01:03.089Z,6.78
2018-12-23T05:03:31.945Z,6.78
2018-12-23T05:06:00.800Z,6.73
2018-12-23T05:08:29.788Z,6.71
2018-12-23T05:10:58.695Z,6.62
2018-12-23T05:13:28.160Z,6.57
2018-12-23T05:15:57.080Z,6.45
2018-12-23T05:18:25.992Z,6.39
2018-12-23T05:20:55.063Z,6.30
2018-12-23T05:23:23.943Z,6.20
2018-12-23T05:25:52.839Z,6.14
2018-12-23T05:28:21.659Z,6.16
2018-12-23T05:30:50.612Z,6.07
2018-12-23T05:33:21.112Z,6.02
2018-12-23T05:35:49.952Z,5.90
2018-12-23T05:38:18.782Z,5.94
2018-12-23T05:40:47.638Z,5.96
2018-12-23T05:43:16.581Z,5.99
2018-12-23T05:45:45.503Z,5.86
2018-12-23T05:48:14.320Z,5.81
2018-12-23T05:50:43.164Z,5.93
2018-12-23T05:53:12.034Z,5.91
2018-12-23T05:55:39.980Z,5.78
2018-12-23T05:58:08.853Z,5.95
2018-12-23T06:00:37.699Z,6.00
2018-12-23T06:03:06.868Z,6.08
2018-12-23T06:05:35.781Z,6.10
2018-12-23T06:08:04.677Z,6.21
2018-12-23T06:10:33.569Z,6.26
2018-12-23T06:13:02.451Z,6.26
2018-12-23T06:15:31.299Z,6.23
2018-12-23T06:18:00.249Z,6.19
2018-12-23T06:20:29.067Z,6.26
2018-12-23T06:22:58.108Z,6.19
2018-12-23T06:25:27.071Z,6.16
2018-12-23T06:27:55.869Z,6.23
2018-12-23T06:30:24.814Z,6.23
2018-12-23T06:32:53.662Z,6.26
2018-12-23T06:35:22.532Z,6.35
2018-12-23T06:37:51.334Z,6.34
2018-12-23T06:40:20.606Z,6.39
2018-12-23T06:42:49.454Z,6.41
2018-12-23T06:45:18.343Z,6.41
2018-12-23T06:47:47.187Z,6.49
2018-12-23T06:50:16.100Z,6.40
2018-12-23T06:52:44.926Z,6.39
2018-12-23T06:55:13.807Z,6.35
2018-12-23T06:57:42.721Z,6.37
2018-12-23T07:00:11.539Z,6.42
2018-12-23T07:02:40.530Z,6.34
2018-12-23T07:05:09.315Z,6.38
2018-12-23T07:07:38.200Z,6.33
2018-12-23T07:10:08.079Z,6.41
2018-12-23T07:12:36.943Z,6.48
2018-12-23T07:15:06.071Z,6.47
2018-12-23T07:17:34.924Z,6.59
2018-12-23T07:20:04.151Z,6.54
2018-12-23T07:22:33.023Z,6.52
2018-12-23T07:25:01.873Z,6.59
2018-12-23T07:27:30.831Z,6.61
2018-12-23T07:29:59.666Z,6.62
2018-12-23T07:32:28.593Z,6.72
2018-12-23T07:34:57.438Z,6.69
2018-12-23T07:37:27.752Z,6.79
2018-12-23T07:39:56.898Z,6.79
2018-12-23T07:42:25.750Z,6.88
2018-12-23T07:44:54.652Z,6.77
2018-12-23T07:47:23.606Z,6.79
2018-12-23T07:49:52.484Z,6.83
2018-12-23T07:52:21.342Z,6.79
2018-12-23T07:54:50.187Z,6.77
2018-12-23T07:57:19.057Z,6.83
2018-12-23T07:59:47.875Z,6.85
2018-12-23T08:02:16.735Z,6.88
2018-12-23T08:04:45.702Z,6.95
2018-12-23T08:07:14.519Z,6.98
2018-12-23T08:09:43.441Z,6.95
2018-12-23T08:12:12.330Z,6.95
2018-12-23T08:14:41.163Z,6.97
2018-12-23T08:17:10.146Z,6.98
2018-12-23T08:19:38.992Z,6.96
2018-12-23T08:22:07.894Z,6.97
2018-12-23T08:24:36.828Z,6.98
2018-12-23T08:27:05.882Z,6.94
2018-12-23T08:29:34.766Z,6.94
2018-12-23T08:32:03.646Z,6.96
2018-12-23T08:34:32.610Z,7.00
2018-12-23T08:37:01.463Z,7.05
2018-12-23T08:39:30.426Z,7.01
2018-12-23T08:41:59.323Z,7.06
2018-12-23T08:44:28.184Z,7.06
2018-12-23T08:46:57.067Z,7.10
2018-12-23T08:49:25.908Z,7.21
2018-12-23T08:51:54.743Z,7.22
2018-12-23T08:54:23.579Z,7.17
2018-12-23T08:56:52.408Z,7.21
2018-12-23T08:59:21.244Z,7.18
2018-12-23T09:01:50.179Z,7.14
2018-12-23T09:04:19.023Z,7.19
2018-12-23T09:06:47.855Z,7.22
2018-12-23T09:09:16.699Z,7.12
2018-12-23T09:11:45.531Z,7.08
2018-12-23T09:14:14.418Z,7.11
2018-12-23T09:16:43.297Z,7.02
2018-12-23T09:19:12.151Z,7.05
2018-12-23T09:21:40.987Z,7.12
2018-12-23T09:24:09.843Z,7.18
2018-12-23T09:26:38.730Z,7.23
2018-12-23T09:29:07.591Z,7.30
2018-12-23T09:31:36.420Z,7.36
2018-12-23T09:34:05.294Z,7.39
2018-12-23T09:36:34.231Z,7.39
2018-12-23T09:39:04.116Z,7.34
2018-12-23T09:41:33.008Z,7.36
2018-12-23T09:44:01.847Z,7.29
2018-12-23T09:46:30.819Z,7.42
2018-12-23T09:48:59.896Z,7.38
2018-12-23T09:51:28.736Z,7.51
2018-12-23T09:53:57.564Z,7.56
2018-12-23T09:56:26.389Z,7.59
2018-12-23T09:58:55.351Z,7.56
2018-12-23T10:01:24.216Z,7.57
2018-12-23T10:03:53.119Z,7.59
2018-12-23T10:06:21.941Z,7.61
2018-12-23T10:08:50.835Z,7.71
2018-12-23T10:11:19.703Z,7.75
2018-12-23T10:13:49.637Z,7.77
2018-12-23T10:16:18.535Z,7.71
2018-12-23T10:18:47.473Z,7.69
2018-12-23T10:21:16.403Z,7.62
2018-12-23T10:23:45.259Z,7.62
2018-12-23T10:26:14.091Z,7.46
2018-12-23T10:28:43.041Z,7.38
2018-12-23T10:31:11.881Z,7.34
2018-12-23T10:33:42.961Z,7.32
2018-12-23T10:36:12.313Z,7.27
2018-12-23T10:38:41.130Z,7.32
2018-12-23T10:41:09.967Z,7.40
2018-12-23T10:43:38.880Z,7.40
2018-12-23T10:46:07.871Z,7.47
2018-12-23T10:48:37.451Z,7.55
2018-12-23T10:51:06.385Z,7.63
2018-12-23T10:54:08.064Z,7.68
2018-12-23T10:56:38.323Z,7.79
2018-12-23T10:59:08.430Z,7.88
2018-12-23T11:01:38.764Z,8.01
2018-12-23T11:04:08.872Z,8.05
2018-12-23T11:06:39.092Z,8.07
2018-12-23T11:09:10.291Z,8.10
2018-12-23T11:11:40.472Z,8.12
2018-12-23T11:14:10.652Z,8.28
2018-12-23T11:16:41.094Z,8.41
2018-12-23T11:19:11.189Z,8.30
2018-12-23T11:21:41.259Z,8.50
2018-12-23T11:24:11.341Z,8.42
2018-12-23T11:26:41.605Z,8.57
2018-12-23T11:29:11.697Z,8.62
2018-12-23T11:31:41.782Z,8.51
2018-12-23T11:34:12.093Z,8.54
2018-12-23T11:36:42.248Z,8.47
2018-12-23T11:39:12.330Z,8.37
2018-12-23T11:41:42.458Z,8.33
2018-12-23T11:44:12.664Z,8.15
2018-12-23T11:46:42.783Z,8.10
2018-12-23T11:49:12.850Z,8.09
2018-12-23T11:51:43.269Z,8.06
2018-12-23T11:54:13.353Z,8.22
2018-12-23T11:56:43.448Z,8.27
2018-12-23T11:59:13.863Z,8.41
2018-12-23T12:01:44.044Z,8.46
2018-12-23T12:04:14.274Z,8.29
2018-12-23T12:06:44.394Z,8.31
2018-12-23T12:09:14.805Z,8.38
2018-12-23T12:11:44.945Z,8.34
2018-12-23T12:14:15.034Z,8.32
2018-12-23T12:16:45.237Z,8.32
2018-12-23T12:19:15.632Z,8.30
2018-12-23T12:21:46.197Z,8.29
2018-12-23T12:24:16.272Z,8.37
2018-12-23T12:26:46.448Z,8.29
2018-12-23T12:29:16.548Z,8.22
2018-12-23T12:31:46.640Z,8.26
2018-12-23T12:34:16.889Z,8.23
2018-12-23T12:36:47.061Z,8.31
2018-12-23T12:39:17.563Z,8.32
2018-12-23T12:41:47.742Z,8.32
2018-12-23T12:44:18.000Z,8.39
2018-12-23T12:46:48.083Z,8.47
2018-12-23T12:49:18.328Z,8.43
2018-12-23T12:51:48.771Z,8.46
2018-12-23T12:54:19.259Z,8.43
2018-12-23T12:56:49.457Z,8.61
2018-12-23T12:59:19.535Z,8.55
2018-12-23T13:01:50.024Z,8.54
2018-12-23T13:04:20.111Z,8.66
2018-12-23T13:06:50.212Z,8.58
2018-12-23T13:09:20.443Z,8.74
2018-12-23T13:11:50.530Z,8.74
2018-12-23T13:14:21.002Z,8.81
2018-12-23T13:16:51.117Z,8.76
2018-12-23T13:19:21.263Z,8.68
2018-12-23T13:21:51.715Z,8.84
2018-12-23T13:24:21.812Z,8.76
2018-12-23T13:26:51.980Z,8.74
2018-12-23T13:29:22.168Z,8.72
2018-12-23T13:31:52.294Z,8.81
2018-12-23T13:34:22.816Z,8.76
2018-12-23T13:36:52.985Z,8.73
2018-12-23T13:39:23.067Z,8.62
2018-12-23T13:42:52.931Z,8.68
2018-12-23T13:45:54.433Z,8.65
2018-12-23T13:49:17.760Z,8.57
2018-12-23T13:52:18.015Z,8.55
2018-12-23T13:55:37.416Z,8.70
2018-12-23T13:58:54.622Z,8.65
2018-12-23T14:02:17.874Z,8.67
2018-12-23T14:05:12.148Z,8.69
2018-12-23T14:08:08.464Z,8.55
2018-12-23T14:11:21.890Z,8.60
2018-12-23T14:13:52.005Z,8.55
2018-12-23T14:16:22.091Z,8.56
2018-12-23T14:18:52.307Z,8.48
2018-12-23T14:21:22.466Z,8.55
2018-12-23T14:23:52.571Z,8.45
2018-12-23T14:26:22.754Z,8.50
2018-12-23T14:28:53.226Z,8.53
2018-12-23T14:31:23.671Z,8.40
2018-12-23T14:33:53.877Z,8.40
2018-12-23T14:36:24.044Z,8.36
2018-12-23T14:38:55.573Z,8.39
2018-12-23T14:41:25.862Z,8.34
2018-12-23T14:43:56.023Z,8.29
2018-12-23T14:46:26.505Z,8.34
2018-12-23T14:48:56.785Z,8.33
2018-12-23T14:51:26.982Z,8.31
2018-12-23T14:53:57.085Z,8.27
2018-12-23T14:56:27.237Z,8.22
2018-12-23T14:58:57.360Z,8.11
2018-12-23T15:01:27.610Z,8.02
2018-12-23T15:03:57.795Z,8.05
2018-12-23T15:06:27.979Z,8.04
2018-12-23T15:08:58.078Z,8.02
2018-12-23T15:11:28.526Z,7.95
2018-12-23T15:13:58.681Z,7.91
2018-12-23T15:16:28.819Z,7.94
2018-12-23T15:19:00.530Z,7.89
2018-12-23T15:21:30.763Z,7.93
2018-12-23T15:24:01.309Z,8.02
2018-12-23T15:26:31.479Z,7.85
2018-12-23T15:29:01.592Z,7.88
2018-12-23T15:31:32.056Z,7.88
2018-12-23T15:34:02.492Z,7.82
2018-12-23T15:36:33.082Z,7.74
2018-12-23T15:39:04.854Z,7.68
2018-12-23T15:41:35.310Z,7.67
2018-12-23T15:44:05.502Z,7.61
2018-12-23T15:46:35.728Z,7.62
2018-12-23T15:49:05.907Z,7.60
2018-12-23T15:51:36.151Z,7.63
2018-12-23T15:54:06.252Z,7.63
2018-12-23T15:56:36.508Z,7.59
2018-12-23T15:59:06.723Z,7.54
2018-12-23T16:01:36.889Z,7.60
2018-12-23T16:04:06.983Z,7.56
2018-12-23T16:06:37.135Z,7.57
2018-12-23T16:09:08.791Z,7.55
2018-12-23T16:11:39.407Z,7.43
2018-12-23T16:14:10.595Z,7.43
2018-12-23T16:16:40.769Z,7.48
2018-12-23T16:19:11.232Z,7.39
2018-12-23T16:21:41.304Z,7.45
2018-12-23T16:24:11.516Z,7.37
2018-12-23T16:26:42.686Z,7.38
2018-12-23T16:29:12.817Z,7.34
2018-12-23T16:31:43.132Z,7.28
2018-12-23T16:34:13.382Z,7.20
2018-12-23T16:36:43.943Z,7.16
2018-12-23T16:39:14.038Z,7.12
2018-12-23T16:41:44.176Z,7.07
2018-12-23T16:44:14.271Z,7.09
2018-12-23T16:46:44.371Z,7.03
2018-12-23T16:49:14.461Z,7.07
2018-12-23T16:51:44.741Z,6.94
2018-12-23T16:54:14.951Z,6.90
2018-12-23T16:56:45.023Z,6.88
2018-12-23T16:59:15.609Z,6.78
2018-12-23T17:01:45.985Z,6.77
2018-12-23T17:04:16.692Z,6.79
2018-12-23T17:06:46.865Z,6.78
2018-12-23T17:09:17.339Z,6.79
2018-12-23T17:11:47.425Z,6.81
2018-12-23T17:14:17.713Z,6.73
2018-12-23T17:16:48.123Z,6.75
2018-12-23T17:19:18.416Z,6.73
2018-12-23T17:21:48.571Z,6.74
2018-12-23T17:24:19.019Z,6.75
2018-12-23T17:26:49.135Z,6.82
2018-12-23T17:29:19.353Z,6.80
2018-12-23T17:31:49.543Z,6.66
2018-12-23T17:34:19.716Z,6.70
2018-12-23T17:36:49.809Z,6.68
2018-12-23T17:39:24.012Z,6.70
2018-12-23T17:41:54.206Z,6.66
2018-12-23T17:44:24.392Z,6.69
2018-12-23T17:46:54.899Z,6.66
2018-12-23T17:49:25.090Z,6.70
2018-12-23T17:51:55.253Z,6.76
2018-12-23T17:54:25.474Z,6.75
2018-12-23T17:56:55.581Z,6.76
2018-12-23T17:59:25.676Z,6.75
2018-12-23T18:01:56.080Z,6.74
2018-12-23T18:04:26.638Z,6.71
2018-12-23T18:07:03.692Z,6.75
2018-12-23T18:09:28.719Z,6.83
2018-12-23T18:11:58.879Z,6.85
2018-12-23T18:14:29.114Z,6.81
2018-12-23T18:16:59.238Z,6.81
2018-12-23T18:19:29.735Z,6.75
2018-12-23T18:21:59.910Z,6.79
2018-12-23T18:24:30.088Z,6.79
2018-12-23T18:27:00.800Z,6.77
2018-12-23T18:29:30.877Z,6.73
2018-12-23T18:32:00.953Z,6.78
2018-12-23T18:34:31.043Z,6.80
2018-12-23T18:37:01.134Z,6.80
2018-12-23T18:39:31.222Z,6.81
2018-12-23T18:42:01.372Z,6.80
2018-12-23T18:44:31.465Z,6.80
2018-12-23T18:47:01.541Z,6.80
2018-12-23T18:49:31.698Z,6.78
2018-12-23T18:52:02.013Z,6.83
2018-12-23T18:54:32.145Z,6.72
2018-12-23T18:57:06.182Z,6.69
2018-12-23T18:59:40.207Z,6.73
2018-12-23T19:02:13.466Z,6.71
2018-12-23T19:04:43.694Z,6.74
2018-12-23T19:07:13.893Z,6.77
2018-12-23T19:10:12.703Z,6.79
2018-12-23T19:13:19.966Z,6.76
2018-12-23T19:16:26.450Z,6.78
2018-12-23T19:19:40.869Z,6.79
2018-12-23T19:22:45.222Z,6.75
2018-12-23T19:26:00.714Z,6.71
2018-12-23T19:28:47.426Z,6.72
2018-12-23T19:32:09.895Z,6.77
2018-12-23T19:35:23.421Z,6.74
2018-12-23T19:38:23.609Z,6.68
2018-12-23T19:41:26.461Z,6.67
2018-12-23T19:44:09.043Z,6.91
2018-12-23T19:47:19.191Z,6.94
2018-12-23T19:50:30.443Z,6.97
2018-12-23T19:53:22.398Z,6.80
2018-12-23T19:56:46.241Z,6.75
2018-12-23T20:00:04.529Z,6.77
2018-12-23T20:03:03.227Z,6.71
2018-12-23T20:06:03.394Z,6.64
2018-12-23T20:09:06.806Z,6.63
2018-12-23T20:12:22.827Z,6.63
2018-12-23T20:15:10.042Z,6.67
2018-12-23T20:18:06.621Z,6.73
2018-12-23T20:21:20.641Z,6.76
2018-12-23T20:24:07.328Z,6.70
2018-12-23T20:27:08.554Z,6.68
2018-12-23T20:30:20.901Z,6.75
2018-12-23T20:33:27.241Z,6.75
2018-12-23T20:37:03.221Z,6.78
2018-12-23T20:40:09.103Z,6.70
2018-12-23T20:43:19.883Z,6.70
2018-12-23T20:46:19.697Z,6.90
2018-12-23T20:49:21.041Z,6.87
2018-12-23T20:52:42.253Z,6.81
2018-12-23T20:55:55.609Z,6.81
2018-12-23T20:58:44.191Z,6.83
2018-12-23T21:01:37.275Z,6.85
2018-12-23T21:04:48.734Z,6.82
2018-12-23T21:07:59.536Z,6.84
2018-12-23T21:11:05.514Z,6.79
2018-12-23T21:14:10.827Z,6.81
2018-12-23T21:16:59.295Z,6.78
2018-12-23T21:20:05.680Z,6.72
2018-12-23T21:23:01.179Z,6.76
2018-12-23T21:26:07.349Z,6.75
2018-12-23T21:29:01.726Z,6.73
2018-12-23T21:32:01.264Z,6.84
2018-12-23T21:35:06.103Z,6.92
2018-12-23T21:38:23.386Z,6.87
2018-12-23T21:41:08.767Z,6.83
2018-12-23T21:44:04.985Z,6.85
2018-12-23T21:47:28.664Z,6.88
2018-12-23T21:51:07.592Z,6.90
2018-12-23T21:54:09.455Z,7.05
2018-12-23T21:57:24.290Z,6.94
2018-12-23T22:00:31.864Z,6.93
2018-12-23T22:04:10.939Z,6.87
2018-12-23T22:07:31.179Z,6.90
2018-12-23T22:10:43.290Z,6.79
2018-12-23T22:13:28.930Z,6.79
2018-12-23T22:15:59.144Z,6.82
2018-12-23T22:18:29.537Z,6.83
2018-12-23T22:20:59.741Z,6.88
2018-12-23T22:23:30.439Z,6.84
2018-12-23T22:26:03.283Z,6.90
2018-12-23T22:28:33.703Z,6.86
2018-12-23T22:31:04.267Z,6.92
2018-12-23T22:33:35.369Z,6.96
2018-12-23T22:36:05.965Z,7.00
2018-12-23T22:38:36.121Z,6.94
2018-12-23T22:41:09.757Z,6.91
2018-12-23T22:43:39.963Z,6.94
2018-12-23T22:46:10.211Z,7.02
2018-12-23T22:48:40.423Z,6.99
2018-12-23T22:51:10.601Z,6.99
2018-12-23T22:53:40.799Z,7.09
2018-12-23T22:56:13.433Z,7.19
2018-12-23T22:58:43.216Z,7.38
2018-12-23T23:01:13.411Z,7.28
2018-12-23T23:03:43.566Z,7.16
2018-12-23T23:06:13.751Z,7.21
2018-12-23T23:08:44.174Z,7.19
2018-12-23T23:11:14.450Z,7.22
2018-12-23T23:13:44.524Z,7.34
2018-12-23T23:16:14.642Z,8.25
2018-12-23T23:18:44.747Z,8.85
2018-12-23T23:21:14.834Z,9.25
2018-12-23T23:23:44.908Z,9.52
2018-12-23T23:26:16.375Z,9.72
2018-12-23T23:28:46.454Z,9.76
2018-12-23T23:31:16.609Z,9.86
2018-12-23T23:33:46.787Z,9.91
2018-12-23T23:36:16.885Z,10.04
2018-12-23T23:38:47.129Z,10.13
2018-12-23T23:41:17.225Z,10.13
2018-12-23T23:43:47.736Z,10.14
2018-12-23T23:46:18.009Z,10.13
2018-12-23T23:48:48.421Z,10.16
2018-12-23T23:51:18.526Z,10.19
2018-12-23T23:53:49.767Z,10.20
2018-12-23T23:56:19.974Z,10.23
2018-12-23T23:58:50.150Z,10.31
